sensor_id;sensor_type;location;lat;lon;timestamp;pressure;altitude;pressure_sealevel;temperature;humidity
85078;BME280;75413;50.144;8.456;2024-01-11T00:01:56;100075.16;;;-3.12;64.11
85078;BME280;75413;50.144;8.456;2024-01-11T00:04:40;100074.78;;;-3.25;64.11
85078;BME280;75413;50.144;8.456;2024-01-11T00:07:25;100109.28;;;-3.04;64.49
85078;BME280;75413;50.144;8.456;2024-01-11T00:10:09;100073.81;;;-3.22;64.86
85078;BME280;75413;50.144;8.456;2024-01-11T00:12:53;100064.50;;;-3.26;64.29
85078;BME280;75413;50.144;8.456;2024-01-11T00:15:37;100075.78;;;-3.29;64.71
85078;BME280;75413;50.144;8.456;2024-01-11T00:18:21;100087.38;;;-3.17;64.41
85078;BME280;75413;50.144;8.456;2024-01-11T00:21:05;100115.34;;;-3.05;64.59
85078;BME280;75413;50.144;8.456;2024-01-11T00:23:49;100111.00;;;-3.05;64.72
85078;BME280;75413;50.144;8.456;2024-01-11T00:26:33;100073.28;;;-3.32;65.00
85078;BME280;75413;50.144;8.456;2024-01-11T00:29:17;100116.38;;;-3.11;64.87
85078;BME280;75413;50.144;8.456;2024-01-11T00:32:01;100113.19;;;-3.17;65.08
85078;BME280;75413;50.144;8.456;2024-01-11T00:34:45;100066.00;;;-3.45;64.59
85078;BME280;75413;50.144;8.456;2024-01-11T00:37:29;100066.00;;;-3.45;65.58
85078;BME280;75413;50.144;8.456;2024-01-11T00:40:13;100117.22;;;-3.10;66.01
85078;BME280;75413;50.144;8.456;2024-01-11T00:43:00;100064.13;;;-3.40;65.60
85078;BME280;75413;50.144;8.456;2024-01-11T00:45:45;100012.22;;;-3.79;65.17
85078;BME280;75413;50.144;8.456;2024-01-11T00:48:29;100051.69;;;-3.52;65.12
85078;BME280;75413;50.144;8.456;2024-01-11T00:51:15;100119.97;;;-3.15;64.90
85078;BME280;75413;50.144;8.456;2024-01-11T00:53:59;100119.91;;;-3.13;65.04
85078;BME280;75413;50.144;8.456;2024-01-11T00:56:43;100124.22;;;-3.14;64.27
85078;BME280;75413;50.144;8.456;2024-01-11T00:59:27;100126.06;;;-3.17;65.12
85078;BME280;75413;50.144;8.456;2024-01-11T01:02:11;100086.13;;;-3.30;64.88
85078;BME280;75413;50.144;8.456;2024-01-11T01:04:54;100124.03;;;-3.08;63.87
85078;BME280;75413;50.144;8.456;2024-01-11T01:07:39;100123.91;;;-3.05;64.44
85078;BME280;75413;50.144;8.456;2024-01-11T01:10:23;100123.19;;;-3.08;64.02
85078;BME280;75413;50.144;8.456;2024-01-11T01:13:07;100127.59;;;-3.12;64.30
85078;BME280;75413;50.144;8.456;2024-01-11T01:15:51;100095.50;;;-3.28;64.33
85078;BME280;75413;50.144;8.456;2024-01-11T01:18:35;100118.66;;;-3.26;66.34
85078;BME280;75413;50.144;8.456;2024-01-11T01:21:19;100081.38;;;-3.42;65.30
85078;BME280;75413;50.144;8.456;2024-01-11T01:24:03;100125.16;;;-3.16;65.64
85078;BME280;75413;50.144;8.456;2024-01-11T01:26:47;100127.69;;;-3.15;65.48
85078;BME280;75413;50.144;8.456;2024-01-11T01:29:31;100105.81;;;-3.28;65.00
85078;BME280;75413;50.144;8.456;2024-01-11T01:32:15;100125.81;;;-3.10;64.22
85078;BME280;75413;50.144;8.456;2024-01-11T01:34:59;100090.75;;;-3.40;65.08
85078;BME280;75413;50.144;8.456;2024-01-11T01:37:43;100085.88;;;-3.47;64.65
85078;BME280;75413;50.144;8.456;2024-01-11T01:40:30;100105.09;;;-3.31;65.11
85078;BME280;75413;50.144;8.456;2024-01-11T01:43:14;100132.00;;;-3.15;65.55
85078;BME280;75413;50.144;8.456;2024-01-11T01:45:58;100132.13;;;-3.18;65.46
85078;BME280;75413;50.144;8.456;2024-01-11T01:48:42;100130.75;;;-3.28;66.86
85078;BME280;75413;50.144;8.456;2024-01-11T01:51:29;100130.88;;;-3.31;66.77
85078;BME280;75413;50.144;8.456;2024-01-11T01:54:15;100102.38;;;-3.53;65.58
85078;BME280;75413;50.144;8.456;2024-01-11T01:57:03;100137.69;;;-3.30;66.03
85078;BME280;75413;50.144;8.456;2024-01-11T01:59:49;100141.09;;;-3.30;65.25
85078;BME280;75413;50.144;8.456;2024-01-11T02:02:35;100145.53;;;-3.33;64.68
85078;BME280;75413;50.144;8.456;2024-01-11T02:05:19;100147.25;;;-3.34;65.91
85078;BME280;75413;50.144;8.456;2024-01-11T02:08:06;100148.09;;;-3.33;65.51
85078;BME280;75413;50.144;8.456;2024-01-11T02:10:52;100146.34;;;-3.31;65.65
85078;BME280;75413;50.144;8.456;2024-01-11T02:13:37;100097.66;;;-3.66;65.49
85078;BME280;75413;50.144;8.456;2024-01-11T02:16:21;100149.38;;;-3.45;65.07
85078;BME280;75413;50.144;8.456;2024-01-11T02:19:06;100141.63;;;-3.45;65.31
85078;BME280;75413;50.144;8.456;2024-01-11T02:21:54;100150.41;;;-3.50;66.00
85078;BME280;75413;50.144;8.456;2024-01-11T02:24:39;100127.72;;;-3.65;65.81
85078;BME280;75413;50.144;8.456;2024-01-11T02:27:23;100151.25;;;-3.50;65.83
85078;BME280;75413;50.144;8.456;2024-01-11T02:30:07;100133.56;;;-3.60;65.94
85078;BME280;75413;50.144;8.456;2024-01-11T02:32:51;100119.09;;;-3.64;64.96
85078;BME280;75413;50.144;8.456;2024-01-11T02:35:35;100114.06;;;-3.69;65.41
85078;BME280;75413;50.144;8.456;2024-01-11T02:38:22;100122.41;;;-3.61;65.53
85078;BME280;75413;50.144;8.456;2024-01-11T02:41:06;100118.19;;;-3.63;65.42
85078;BME280;75413;50.144;8.456;2024-01-11T02:43:52;100160.31;;;-3.38;64.83
85078;BME280;75413;50.144;8.456;2024-01-11T02:46:37;100150.94;;;-3.41;64.80
85078;BME280;75413;50.144;8.456;2024-01-11T02:49:21;100153.03;;;-3.52;64.68
85078;BME280;75413;50.144;8.456;2024-01-11T02:52:05;100153.16;;;-3.55;66.22
85078;BME280;75413;50.144;8.456;2024-01-11T02:54:49;100150.63;;;-3.56;65.65
85078;BME280;75413;50.144;8.456;2024-01-11T02:57:33;100118.69;;;-3.78;65.97
85078;BME280;75413;50.144;8.456;2024-01-11T03:00:17;100143.06;;;-3.62;66.22
85078;BME280;75413;50.144;8.456;2024-01-11T03:03:02;100136.28;;;-3.65;66.32
85078;BME280;75413;50.144;8.456;2024-01-11T03:05:46;100106.97;;;-3.88;65.43
85078;BME280;75413;50.144;8.456;2024-01-11T03:08:30;100099.41;;;-3.93;66.66
85078;BME280;75413;50.144;8.456;2024-01-11T03:11:14;100125.91;;;-3.89;67.05
85078;BME280;75413;50.144;8.456;2024-01-11T03:13:58;100105.72;;;-4.03;66.60
85078;BME280;75413;50.144;8.456;2024-01-11T03:16:42;100126.53;;;-3.81;66.41
85078;BME280;75413;50.144;8.456;2024-01-11T03:19:26;100125.53;;;-3.77;66.80
85078;BME280;75413;50.144;8.456;2024-01-11T03:22:11;100121.13;;;-3.74;65.09
85078;BME280;75413;50.144;8.456;2024-01-11T03:24:55;100119.31;;;-3.70;65.41
85078;BME280;75413;50.144;8.456;2024-01-11T03:27:39;100120.81;;;-3.65;65.44
85078;BME280;75413;50.144;8.456;2024-01-11T03:30:23;100121.34;;;-3.55;65.65
85078;BME280;75413;50.144;8.456;2024-01-11T03:33:07;100123.84;;;-3.52;65.15
85078;BME280;75413;50.144;8.456;2024-01-11T03:35:51;100129.88;;;-3.53;64.99
85078;BME280;75413;50.144;8.456;2024-01-11T03:38:35;100097.78;;;-3.69;65.53
85078;BME280;75413;50.144;8.456;2024-01-11T03:41:19;100117.53;;;-3.70;66.19
85078;BME280;75413;50.144;8.456;2024-01-11T03:44:03;100111.19;;;-3.86;65.35
85078;BME280;75413;50.144;8.456;2024-01-11T03:46:47;100118.88;;;-3.84;65.58
85078;BME280;75413;50.144;8.456;2024-01-11T03:49:31;100077.69;;;-4.12;65.87
85078;BME280;75413;50.144;8.456;2024-01-11T03:52:15;100117.28;;;-3.88;65.91
85078;BME280;75413;50.144;8.456;2024-01-11T03:54:59;100129.94;;;-3.81;65.25
85078;BME280;75413;50.144;8.456;2024-01-11T03:57:43;100081.53;;;-3.97;64.75
85078;BME280;75413;50.144;8.456;2024-01-11T04:00:28;100133.00;;;-3.70;65.60
85078;BME280;75413;50.144;8.456;2024-01-11T04:03:12;100140.59;;;-3.65;64.71
85078;BME280;75413;50.144;8.456;2024-01-11T04:05:56;100106.81;;;-3.82;64.21
85078;BME280;75413;50.144;8.456;2024-01-11T04:08:40;100129.44;;;-3.66;65.23
85078;BME280;75413;50.144;8.456;2024-01-11T04:11:27;100141.69;;;-3.72;65.21
85078;BME280;75413;50.144;8.456;2024-01-11T04:14:11;100141.94;;;-3.80;65.21
85078;BME280;75413;50.144;8.456;2024-01-11T04:16:56;100126.81;;;-3.90;65.63
85078;BME280;75413;50.144;8.456;2024-01-11T04:19:40;100119.66;;;-4.08;66.34
85078;BME280;75413;50.144;8.456;2024-01-11T04:22:24;100135.81;;;-4.03;66.52
85078;BME280;75413;50.144;8.456;2024-01-11T04:25:11;100139.28;;;-4.04;66.27
85078;BME280;75413;50.144;8.456;2024-01-11T04:27:55;100131.78;;;-4.12;65.62
85078;BME280;75413;50.144;8.456;2024-01-11T04:30:39;100112.22;;;-4.17;65.42
85078;BME280;75413;50.144;8.456;2024-01-11T04:33:23;100140.88;;;-4.00;65.34
85078;BME280;75413;50.144;8.456;2024-01-11T04:36:10;100110.34;;;-4.12;66.25
85078;BME280;75413;50.144;8.456;2024-01-11T04:38:54;100041.53;;;-4.62;65.96
85078;BME280;75413;50.144;8.456;2024-01-11T04:41:39;100142.72;;;-4.05;65.50
85078;BME280;75413;50.144;8.456;2024-01-11T04:44:23;100144.81;;;-4.16;66.68
85078;BME280;75413;50.144;8.456;2024-01-11T04:47:07;100146.53;;;-4.17;66.22
85078;BME280;75413;50.144;8.456;2024-01-11T04:49:52;100150.13;;;-4.22;66.50
85078;BME280;75413;50.144;8.456;2024-01-11T04:52:36;100096.97;;;-4.52;65.88
85078;BME280;75413;50.144;8.456;2024-01-11T04:55:25;100151.91;;;-4.24;66.44
85078;BME280;75413;50.144;8.456;2024-01-11T04:58:09;100153.63;;;-4.25;66.46
85078;BME280;75413;50.144;8.456;2024-01-11T05:00:53;100155.41;;;-4.27;66.92
85078;BME280;75413;50.144;8.456;2024-01-11T05:03:37;100107.25;;;-4.52;65.96
85078;BME280;75413;50.144;8.456;2024-01-11T05:06:22;100139.41;;;-4.36;66.10
85078;BME280;75413;50.144;8.456;2024-01-11T05:09:06;100142.00;;;-4.38;66.84
85078;BME280;75413;50.144;8.456;2024-01-11T05:11:51;100141.25;;;-4.41;66.63
85078;BME280;75413;50.144;8.456;2024-01-11T05:14:35;100147.19;;;-4.39;66.92
85078;BME280;75413;50.144;8.456;2024-01-11T05:17:19;100099.97;;;-4.66;66.72
85078;BME280;75413;50.144;8.456;2024-01-11T05:20:03;100110.19;;;-4.63;66.92
85078;BME280;75413;50.144;8.456;2024-01-11T05:22:48;100121.28;;;-4.62;66.87
85078;BME280;75413;50.144;8.456;2024-01-11T05:25:32;100126.28;;;-4.56;67.34
85078;BME280;75413;50.144;8.456;2024-01-11T05:28:17;100143.75;;;-4.38;66.83
85078;BME280;75413;50.144;8.456;2024-01-11T05:31:01;100110.78;;;-4.55;66.91
85078;BME280;75413;50.144;8.456;2024-01-11T05:33:45;100152.13;;;-4.32;67.04
85078;BME280;75413;50.144;8.456;2024-01-11T05:36:30;100152.94;;;-4.30;66.74
85078;BME280;75413;50.144;8.456;2024-01-11T05:39:14;100103.50;;;-4.70;66.50
85078;BME280;75413;50.144;8.456;2024-01-11T05:41:58;100123.88;;;-4.62;67.22
85078;BME280;75413;50.144;8.456;2024-01-11T05:44:42;100157.69;;;-4.45;67.52
85078;BME280;75413;50.144;8.456;2024-01-11T05:47:26;100130.75;;;-4.63;66.76
85078;BME280;75413;50.144;8.456;2024-01-11T05:50:10;100126.38;;;-4.59;66.35
85078;BME280;75413;50.144;8.456;2024-01-11T05:52:55;100125.38;;;-4.84;66.82
85078;BME280;75413;50.144;8.456;2024-01-11T05:55:40;100173.31;;;-4.51;67.49
85078;BME280;75413;50.144;8.456;2024-01-11T05:58:24;100130.84;;;-4.66;66.55
85078;BME280;75413;50.144;8.456;2024-01-11T06:01:11;100048.97;;;-5.10;66.15
85078;BME280;75413;50.144;8.456;2024-01-11T06:03:56;100179.53;;;-4.29;66.73
85078;BME280;75413;50.144;8.456;2024-01-11T06:06:40;100182.88;;;-4.27;66.40
85078;BME280;75413;50.144;8.456;2024-01-11T06:09:24;100162.03;;;-4.47;66.28
85078;BME280;75413;50.144;8.456;2024-01-11T06:12:08;100155.19;;;-4.48;67.24
85078;BME280;75413;50.144;8.456;2024-01-11T06:14:52;100170.31;;;-4.38;66.43
85078;BME280;75413;50.144;8.456;2024-01-11T06:17:36;100192.47;;;-4.32;66.02
85078;BME280;75413;50.144;8.456;2024-01-11T06:20:20;100210.09;;;-4.19;66.67
85078;BME280;75413;50.144;8.456;2024-01-11T06:23:04;100210.94;;;-4.18;66.04
85078;BME280;75413;50.144;8.456;2024-01-11T06:25:48;100197.97;;;-4.15;66.04
85078;BME280;75413;50.144;8.456;2024-01-11T06:28:32;100155.97;;;-4.45;65.76
85078;BME280;75413;50.144;8.456;2024-01-11T06:31:16;100194.84;;;-4.26;65.58
85078;BME280;75413;50.144;8.456;2024-01-11T06:34:01;100227.91;;;-4.11;66.28
85078;BME280;75413;50.144;8.456;2024-01-11T06:36:45;100228.75;;;-4.11;65.77
85078;BME280;75413;50.144;8.456;2024-01-11T06:39:29;100223.50;;;-4.08;65.87
85078;BME280;75413;50.144;8.456;2024-01-11T06:42:13;100190.72;;;-4.30;65.53
85078;BME280;75413;50.144;8.456;2024-01-11T06:44:58;100213.53;;;-4.20;65.69
85078;BME280;75413;50.144;8.456;2024-01-11T06:47:42;100234.09;;;-4.18;65.39
85078;BME280;75413;50.144;8.456;2024-01-11T06:50:28;100228.16;;;-4.20;65.84
85078;BME280;75413;50.144;8.456;2024-01-11T06:53:12;100235.00;;;-4.19;65.60
85078;BME280;75413;50.144;8.456;2024-01-11T06:55:56;100236.78;;;-4.21;65.28
85078;BME280;75413;50.144;8.456;2024-01-11T06:58:40;100236.13;;;-4.28;65.25
85078;BME280;75413;50.144;8.456;2024-01-11T07:01:24;100218.19;;;-4.61;66.06
85078;BME280;75413;50.144;8.456;2024-01-11T07:04:09;100210.72;;;-4.70;66.37
85078;BME280;75413;50.144;8.456;2024-01-11T07:06:53;100245.41;;;-4.53;66.82
85078;BME280;75413;50.144;8.456;2024-01-11T07:09:37;100251.72;;;-4.64;66.18
85078;BME280;75413;50.144;8.456;2024-01-11T07:12:21;100247.53;;;-4.68;66.65
85078;BME280;75413;50.144;8.456;2024-01-11T07:15:05;100245.94;;;-4.72;67.03
85078;BME280;75413;50.144;8.456;2024-01-11T07:17:51;100192.84;;;-5.07;66.80
85078;BME280;75413;50.144;8.456;2024-01-11T07:20:37;100214.81;;;-4.95;67.06
85078;BME280;75413;50.144;8.456;2024-01-11T07:23:21;100246.84;;;-4.73;67.30
85078;BME280;75413;50.144;8.456;2024-01-11T07:26:05;100258.88;;;-4.75;67.50
85078;BME280;75413;50.144;8.456;2024-01-11T07:28:49;100253.66;;;-4.72;67.06
85078;BME280;75413;50.144;8.456;2024-01-11T07:31:34;100250.00;;;-4.65;67.02
85078;BME280;75413;50.144;8.456;2024-01-11T07:34:18;100201.34;;;-5.03;66.96
85078;BME280;75413;50.144;8.456;2024-01-11T07:37:03;100248.34;;;-4.66;67.22
85078;BME280;75413;50.144;8.456;2024-01-11T07:39:51;100232.94;;;-4.68;66.84
85078;BME280;75413;50.144;8.456;2024-01-11T07:42:34;100261.53;;;-4.46;66.98
85078;BME280;75413;50.144;8.456;2024-01-11T07:45:18;100257.97;;;-4.42;66.29
85078;BME280;75413;50.144;8.456;2024-01-11T07:48:03;100257.97;;;-4.42;66.12
85078;BME280;75413;50.144;8.456;2024-01-11T07:50:47;100225.63;;;-4.52;66.55
85078;BME280;75413;50.144;8.456;2024-01-11T07:53:31;100253.66;;;-4.42;65.92
85078;BME280;75413;50.144;8.456;2024-01-11T07:56:15;100203.81;;;-4.68;66.12
85078;BME280;75413;50.144;8.456;2024-01-11T07:58:59;100235.94;;;-4.52;65.79
85078;BME280;75413;50.144;8.456;2024-01-11T08:01:43;100229.03;;;-4.50;66.18
85078;BME280;75413;50.144;8.456;2024-01-11T08:04:27;100256.38;;;-4.46;66.32
85078;BME280;75413;50.144;8.456;2024-01-11T08:07:11;100225.91;;;-4.61;66.34
85078;BME280;75413;50.144;8.456;2024-01-11T08:09:55;100218.81;;;-4.53;65.74
85078;BME280;75413;50.144;8.456;2024-01-11T08:12:39;100257.00;;;-4.38;66.30
85078;BME280;75413;50.144;8.456;2024-01-11T08:15:22;100247.34;;;-4.30;65.50
85078;BME280;75413;50.144;8.456;2024-01-11T08:18:06;100248.13;;;-4.28;65.98
85078;BME280;75413;50.144;8.456;2024-01-11T08:20:51;100255.47;;;-4.15;65.05
85078;BME280;75413;50.144;8.456;2024-01-11T08:23:35;100220.00;;;-4.34;66.00
85078;BME280;75413;50.144;8.456;2024-01-11T08:26:19;100226.66;;;-4.27;65.17
85078;BME280;75413;50.144;8.456;2024-01-11T08:29:03;100254.78;;;-3.92;64.63
85078;BME280;75413;50.144;8.456;2024-01-11T08:31:48;100244.06;;;-3.77;64.86
85078;BME280;75413;50.144;8.456;2024-01-11T08:34:33;100234.91;;;-3.60;64.91
85078;BME280;75413;50.144;8.456;2024-01-11T08:37:17;100235.16;;;-3.41;63.67
85078;BME280;75413;50.144;8.456;2024-01-11T08:40:01;100248.75;;;-3.36;63.41
85078;BME280;75413;50.144;8.456;2024-01-11T08:42:45;100210.66;;;-3.54;63.93
85078;BME280;75413;50.144;8.456;2024-01-11T08:45:29;100181.72;;;-3.62;62.85
85078;BME280;75413;50.144;8.456;2024-01-11T08:48:13;100235.78;;;-3.33;62.93
85078;BME280;75413;50.144;8.456;2024-01-11T08:50:58;100265.03;;;-3.08;62.79
85078;BME280;75413;50.144;8.456;2024-01-11T08:53:42;100277.94;;;-3.08;62.61
85078;BME280;75413;50.144;8.456;2024-01-11T08:56:26;100266.03;;;-3.12;63.42
85078;BME280;75413;50.144;8.456;2024-01-11T08:59:11;100283.34;;;-2.90;63.77
85078;BME280;75413;50.144;8.456;2024-01-11T09:01:58;100256.69;;;-2.90;63.32
85078;BME280;75413;50.144;8.456;2024-01-11T09:04:42;100256.56;;;-2.86;62.10
85078;BME280;75413;50.144;8.456;2024-01-11T09:07:26;100297.50;;;-2.51;62.10
85078;BME280;75413;50.144;8.456;2024-01-11T09:10:10;100254.28;;;-2.70;63.84
85078;BME280;75413;50.144;8.456;2024-01-11T09:12:57;100293.53;;;-2.36;63.21
85078;BME280;75413;50.144;8.456;2024-01-11T09:15:42;100293.91;;;-2.22;61.94
85078;BME280;75413;50.144;8.456;2024-01-11T09:18:26;100287.63;;;-2.15;62.50
85078;BME280;75413;50.144;8.456;2024-01-11T09:21:11;100283.13;;;-2.10;61.83
85078;BME280;75413;50.144;8.456;2024-01-11T09:23:55;100280.25;;;-2.03;61.73
85078;BME280;75413;50.144;8.456;2024-01-11T09:26:39;100273.91;;;-1.94;61.87
85078;BME280;75413;50.144;8.456;2024-01-11T09:29:23;100266.84;;;-1.89;61.79
85078;BME280;75413;50.144;8.456;2024-01-11T09:32:07;100281.09;;;-1.79;60.91
85078;BME280;75413;50.144;8.456;2024-01-11T09:34:51;100275.53;;;-1.69;60.78
85078;BME280;75413;50.144;8.456;2024-01-11T09:37:35;100286.28;;;-1.58;61.00
85078;BME280;75413;50.144;8.456;2024-01-11T09:40:19;100253.31;;;-1.74;60.45
85078;BME280;75413;50.144;8.456;2024-01-11T09:43:04;100289.00;;;-1.61;61.38
85078;BME280;75413;50.144;8.456;2024-01-11T09:45:50;100296.09;;;-1.66;61.76
85078;BME280;75413;50.144;8.456;2024-01-11T09:48:37;100305.13;;;-1.54;61.13
85078;BME280;75413;50.144;8.456;2024-01-11T09:51:25;100297.69;;;-1.40;60.72
85078;BME280;75413;50.144;8.456;2024-01-11T09:54:10;100261.28;;;-1.57;60.38
85078;BME280;75413;50.144;8.456;2024-01-11T09:56:58;100313.28;;;-1.20;60.52
85078;BME280;75413;50.144;8.456;2024-01-11T09:59:43;100291.25;;;-1.30;60.21
85078;BME280;75413;50.144;8.456;2024-01-11T10:02:27;100317.91;;;-1.07;59.25
85078;BME280;75413;50.144;8.456;2024-01-11T10:05:11;100317.78;;;-1.04;59.04
85078;BME280;75413;50.144;8.456;2024-01-11T10:07:57;100261.22;;;-1.34;59.08
85078;BME280;75413;50.144;8.456;2024-01-11T10:10:41;100308.56;;;-1.11;59.73
85078;BME280;75413;50.144;8.456;2024-01-11T10:13:30;100309.97;;;-1.02;59.48
85078;BME280;75413;50.144;8.456;2024-01-11T10:16:14;100286.63;;;-1.01;58.88
85078;BME280;75413;50.144;8.456;2024-01-11T10:18:59;100288.66;;;-1.09;58.69
85078;BME280;75413;50.144;8.456;2024-01-11T10:21:43;100284.50;;;-1.13;58.99
85078;BME280;75413;50.144;8.456;2024-01-11T10:24:26;100246.91;;;-1.21;58.41
85078;BME280;75413;50.144;8.456;2024-01-11T10:27:12;100237.63;;;-1.05;57.47
85078;BME280;75413;50.144;8.456;2024-01-11T10:29:59;100261.75;;;-0.85;57.93
85078;BME280;75413;50.144;8.456;2024-01-11T10:32:43;100237.38;;;-0.79;57.08
85078;BME280;75413;50.144;8.456;2024-01-11T10:35:28;100210.50;;;-0.77;57.57
85078;BME280;75413;50.144;8.456;2024-01-11T10:38:13;100262.66;;;-0.26;56.50
85078;BME280;75413;50.144;8.456;2024-01-11T10:41:00;100270.16;;;-0.20;57.26
85078;BME280;75413;50.144;8.456;2024-01-11T10:43:45;100246.94;;;-0.21;56.73
85078;BME280;75413;50.144;8.456;2024-01-11T10:46:31;100265.34;;;-0.09;57.34
85078;BME280;75413;50.144;8.456;2024-01-11T10:49:19;100272.47;;;0.07;57.38
85078;BME280;75413;50.144;8.456;2024-01-11T10:52:04;100229.06;;;-0.09;56.45
85078;BME280;75413;50.144;8.456;2024-01-11T10:54:50;100231.03;;;0.05;56.81
85078;BME280;75413;50.144;8.456;2024-01-11T10:57:35;100238.97;;;0.21;57.09
85078;BME280;75413;50.144;8.456;2024-01-11T11:00:19;100268.38;;;0.38;57.01
85078;BME280;75413;50.144;8.456;2024-01-11T11:03:04;100271.59;;;0.43;57.96
85078;BME280;75413;50.144;8.456;2024-01-11T11:05:53;100275.75;;;0.47;57.44
85078;BME280;75413;50.144;8.456;2024-01-11T11:08:37;100262.56;;;0.52;56.71
85078;BME280;75413;50.144;8.456;2024-01-11T11:11:22;100254.41;;;0.59;56.55
85078;BME280;75413;50.144;8.456;2024-01-11T11:14:07;100256.88;;;0.62;56.53
85078;BME280;75413;50.144;8.456;2024-01-11T11:16:52;100262.53;;;0.70;56.08
85078;BME280;75413;50.144;8.456;2024-01-11T11:19:36;100229.50;;;0.55;55.85
85078;BME280;75413;50.144;8.456;2024-01-11T11:22:20;100258.50;;;0.82;56.14
85078;BME280;75413;50.144;8.456;2024-01-11T11:25:23;100265.94;;;0.89;55.43
85078;BME280;75413;50.144;8.456;2024-01-11T11:28:07;100264.00;;;0.93;54.54
85078;BME280;75413;50.144;8.456;2024-01-11T11:30:55;100234.91;;;0.86;54.56
85078;BME280;75413;50.144;8.456;2024-01-11T11:33:43;100268.84;;;1.00;54.37
85078;BME280;75413;50.144;8.456;2024-01-11T11:36:28;100223.91;;;0.81;53.46
85078;BME280;75413;50.144;8.456;2024-01-11T11:39:13;100230.19;;;0.94;53.31
85078;BME280;75413;50.144;8.456;2024-01-11T11:41:58;100212.56;;;1.01;53.41
85078;BME280;75413;50.144;8.456;2024-01-11T11:44:49;100243.38;;;1.25;52.95
85078;BME280;75413;50.144;8.456;2024-01-11T11:47:37;100228.66;;;1.24;53.80
85078;BME280;75413;50.144;8.456;2024-01-11T11:50:22;100237.44;;;1.39;53.29
85078;BME280;75413;50.144;8.456;2024-01-11T11:53:10;100230.56;;;1.55;52.53
85078;BME280;75413;50.144;8.456;2024-01-11T11:55:54;100213.84;;;1.43;52.45
85078;BME280;75413;50.144;8.456;2024-01-11T11:58:39;100212.22;;;1.58;52.11
85078;BME280;75413;50.144;8.456;2024-01-11T12:01:23;100234.25;;;1.83;52.20
85078;BME280;75413;50.144;8.456;2024-01-11T12:04:08;100233.75;;;1.92;51.64
85078;BME280;75413;50.144;8.456;2024-01-11T12:06:52;100199.69;;;1.81;51.82
85078;BME280;75413;50.144;8.456;2024-01-11T12:09:36;100224.53;;;2.02;51.39
85078;BME280;75413;50.144;8.456;2024-01-11T12:12:21;100219.75;;;2.10;51.74
85078;BME280;75413;50.144;8.456;2024-01-11T12:15:07;100226.91;;;2.22;51.32
85078;BME280;75413;50.144;8.456;2024-01-11T12:17:57;100186.72;;;2.12;50.87
85078;BME280;75413;50.144;8.456;2024-01-11T12:20:42;100205.28;;;2.37;50.52
85078;BME280;75413;50.144;8.456;2024-01-11T12:23:27;100228.09;;;2.63;50.15
85078;BME280;75413;50.144;8.456;2024-01-11T12:26:13;100231.94;;;2.72;50.24
85078;BME280;75413;50.144;8.456;2024-01-11T12:28:58;100227.88;;;2.82;50.24
85078;BME280;75413;50.144;8.456;2024-01-11T12:31:42;100128.88;;;2.38;48.94
85078;BME280;75413;50.144;8.456;2024-01-11T12:34:27;100198.44;;;2.95;48.82
85078;BME280;75413;50.144;8.456;2024-01-11T12:37:12;100174.44;;;2.90;48.67
85078;BME280;75413;50.144;8.456;2024-01-11T12:39:59;100222.19;;;3.34;47.64
85078;BME280;75413;50.144;8.456;2024-01-11T12:42:43;100184.81;;;3.20;47.25
85078;BME280;75413;50.144;8.456;2024-01-11T12:45:27;100180.09;;;3.26;47.37
85078;BME280;75413;50.144;8.456;2024-01-11T12:48:13;100212.94;;;3.58;46.92
85078;BME280;75413;50.144;8.456;2024-01-11T12:50:59;100200.34;;;3.65;47.12
85078;BME280;75413;50.144;8.456;2024-01-11T12:53:47;100207.69;;;3.86;46.00
85078;BME280;75413;50.144;8.456;2024-01-11T12:56:35;100216.09;;;3.91;46.25
85078;BME280;75413;50.144;8.456;2024-01-11T12:59:25;100205.38;;;3.96;45.80
85078;BME280;75413;50.144;8.456;2024-01-11T13:02:09;100202.28;;;4.03;45.07
85078;BME280;75413;50.144;8.456;2024-01-11T13:04:57;100169.13;;;3.77;45.02
85078;BME280;75413;50.144;8.456;2024-01-11T13:07:43;100157.88;;;3.91;45.55
85078;BME280;75413;50.144;8.456;2024-01-11T13:10:27;100190.47;;;4.12;44.91
85078;BME280;75413;50.144;8.456;2024-01-11T13:13:11;100195.25;;;4.32;45.26
85078;BME280;75413;50.144;8.456;2024-01-11T13:15:55;100197.66;;;4.35;44.83
85078;BME280;75413;50.144;8.456;2024-01-11T13:18:40;100203.88;;;4.46;43.90
85078;BME280;75413;50.144;8.456;2024-01-11T13:21:24;100162.72;;;4.50;43.99
85078;BME280;75413;50.144;8.456;2024-01-11T13:24:08;100171.00;;;4.83;43.67
85078;BME280;75413;50.144;8.456;2024-01-11T13:26:52;100158.19;;;4.92;43.00
85078;BME280;75413;50.144;8.456;2024-01-11T13:29:35;100186.88;;;5.19;42.95
85078;BME280;75413;50.144;8.456;2024-01-11T13:32:20;100192.13;;;5.19;42.51
85078;BME280;75413;50.144;8.456;2024-01-11T13:35:06;100158.59;;;4.99;41.79
85078;BME280;75413;50.144;8.456;2024-01-11T13:37:50;100187.19;;;5.27;43.08
85078;BME280;75413;50.144;8.456;2024-01-11T13:40:34;100185.22;;;5.43;42.93
85078;BME280;75413;50.144;8.456;2024-01-11T13:43:19;100194.22;;;5.51;42.22
85078;BME280;75413;50.144;8.456;2024-01-11T13:46:03;100186.16;;;5.42;41.36
85078;BME280;75413;50.144;8.456;2024-01-11T13:48:48;100185.53;;;5.51;42.09
85078;BME280;75413;50.144;8.456;2024-01-11T13:51:32;100146.81;;;5.18;41.71
85078;BME280;75413;50.144;8.456;2024-01-11T13:54:16;100198.41;;;5.41;41.41
85078;BME280;75413;50.144;8.456;2024-01-11T13:57:00;100208.44;;;5.35;41.16
85078;BME280;75413;50.144;8.456;2024-01-11T13:59:44;100216.69;;;5.41;41.72
85078;BME280;75413;50.144;8.456;2024-01-11T14:02:28;100189.31;;;5.47;41.73
85078;BME280;75413;50.144;8.456;2024-01-11T14:05:13;100205.22;;;5.56;41.05
85078;BME280;75413;50.144;8.456;2024-01-11T14:07:58;100205.53;;;5.64;41.69
85078;BME280;75413;50.144;8.456;2024-01-11T14:10:43;100168.06;;;5.39;41.41
85078;BME280;75413;50.144;8.456;2024-01-11T14:13:27;100195.69;;;5.68;41.67
85078;BME280;75413;50.144;8.456;2024-01-11T14:16:11;100125.56;;;5.23;41.46
85078;BME280;75413;50.144;8.456;2024-01-11T14:18:57;100174.75;;;5.55;42.21
85078;BME280;75413;50.144;8.456;2024-01-11T14:21:41;100191.59;;;5.64;42.30
85078;BME280;75413;50.144;8.456;2024-01-11T14:24:25;100157.59;;;5.39;42.10